createdAt,value
2023-05-17T00:00:29.035Z,4.30
2023-05-17T00:02:55.753Z,5.28
2023-05-17T00:05:22.612Z,2.92
2023-05-17T00:07:49.904Z,3.63
2023-05-17T00:10:16.632Z,3.72
2023-05-17T00:12:43.445Z,4.97
2023-05-17T00:15:10.744Z,4.38
2023-05-17T00:17:38.422Z,6.05
2023-05-17T00:20:06.135Z,12.23
2023-05-17T00:22:32.835Z,8.32
2023-05-17T00:24:59.638Z,6.40
2023-05-17T00:27:26.429Z,7.50
2023-05-17T00:29:53.214Z,6.57
2023-05-17T00:32:19.894Z,9.02
2023-05-17T00:34:46.671Z,6.57
2023-05-17T00:37:13.382Z,7.35
2023-05-17T00:39:40.078Z,5.93
2023-05-17T00:42:06.837Z,6.35
2023-05-17T00:44:33.784Z,8.38
2023-05-17T00:47:00.514Z,5.60
2023-05-17T00:49:27.593Z,5.00
2023-05-17T00:51:54.699Z,4.70
2023-05-17T00:54:22.460Z,5.15
2023-05-17T00:56:49.665Z,8.35
2023-05-17T00:59:16.546Z,7.50
2023-05-17T01:01:43.646Z,3.80
2023-05-17T01:04:10.984Z,7.55
2023-05-17T01:06:38.202Z,9.35
2023-05-17T01:09:05.635Z,4.63
2023-05-17T01:11:40.124Z,6.43
2023-05-17T01:14:38.834Z,4.65
2023-05-17T01:17:36.613Z,4.55
2023-05-17T01:20:28.214Z,4.10
2023-05-17T01:23:11.657Z,8.10
2023-05-17T01:26:18.222Z,7.32
2023-05-17T01:28:47.695Z,4.80
2023-05-17T01:31:15.133Z,5.20
2023-05-17T01:33:41.920Z,5.85
2023-05-17T01:36:08.918Z,4.28
2023-05-17T01:38:35.663Z,7.25
2023-05-17T01:41:07.337Z,6.45
2023-05-17T01:43:48.014Z,3.92
2023-05-17T01:46:30.380Z,2.35
2023-05-17T01:49:07.270Z,4.55
2023-05-17T01:51:37.654Z,4.35
2023-05-17T01:54:11.543Z,3.88
2023-05-17T01:56:43.885Z,5.45
2023-05-17T01:59:12.055Z,5.50
2023-05-17T02:01:39.615Z,4.57
2023-05-17T02:04:06.364Z,3.47
2023-05-17T02:06:33.050Z,7.32
2023-05-17T02:09:03.011Z,7.65
2023-05-17T02:11:30.085Z,3.75
2023-05-17T02:13:56.878Z,4.68
2023-05-17T02:16:23.559Z,7.22
2023-05-17T02:18:50.425Z,5.13
2023-05-17T02:21:18.790Z,6.35
2023-05-17T02:23:46.276Z,5.93
2023-05-17T02:26:13.227Z,5.65
2023-05-17T02:28:40.106Z,4.43
2023-05-17T02:31:08.832Z,5.53
2023-05-17T02:33:36.104Z,4.28
2023-05-17T02:36:02.935Z,4.75
2023-05-17T02:38:29.605Z,6.93
2023-05-17T02:40:56.316Z,5.32
2023-05-17T02:43:23.185Z,4.38
2023-05-17T02:45:49.889Z,3.75
2023-05-17T02:48:16.628Z,5.88
2023-05-17T02:50:43.363Z,6.53
2023-05-17T02:53:10.119Z,2.78
2023-05-17T02:55:36.820Z,3.30
2023-05-17T02:58:04.757Z,7.78
2023-05-17T03:00:31.780Z,5.10
2023-05-17T03:02:58.612Z,8.38
2023-05-17T03:05:25.368Z,3.85
2023-05-17T03:07:52.082Z,7.05
2023-05-17T03:10:19.054Z,6.25
2023-05-17T03:12:46.151Z,5.70
2023-05-17T03:15:13.980Z,9.20
2023-05-17T03:17:40.803Z,6.78
2023-05-17T03:20:08.341Z,5.47
2023-05-17T03:22:35.193Z,7.85
2023-05-17T03:25:01.926Z,5.18
2023-05-17T03:27:28.793Z,5.68
2023-05-17T03:29:55.712Z,4.18
2023-05-17T03:32:23.305Z,6.53
2023-05-17T03:34:50.049Z,8.77
2023-05-17T03:37:16.928Z,5.53
2023-05-17T03:39:43.782Z,6.55
2023-05-17T03:42:11.202Z,7.70
2023-05-17T03:44:41.616Z,7.18
2023-05-17T03:47:08.331Z,5.80
2023-05-17T03:49:35.169Z,5.30
2023-05-17T03:52:02.183Z,4.10
2023-05-17T03:54:29.311Z,5.60
2023-05-17T03:56:56.138Z,7.30
2023-05-17T03:59:22.885Z,5.22
2023-05-17T04:01:49.718Z,4.90
2023-05-17T04:04:16.498Z,5.22
2023-05-17T04:06:43.403Z,8.30
2023-05-17T04:09:11.380Z,6.88
2023-05-17T04:11:38.493Z,6.22
2023-05-17T04:14:05.536Z,4.22
2023-05-17T04:16:32.418Z,7.63
2023-05-17T04:19:00.792Z,7.10
2023-05-17T04:21:27.572Z,5.50
2023-05-17T04:23:54.503Z,4.75
2023-05-17T04:26:21.292Z,6.93
2023-05-17T04:28:48.002Z,5.65
2023-05-17T04:31:17.100Z,5.78
2023-05-17T04:33:43.988Z,10.23
2023-05-17T04:36:10.716Z,5.53
2023-05-17T04:38:37.585Z,4.30
2023-05-17T04:41:05.094Z,8.07
2023-05-17T04:43:32.732Z,8.95
2023-05-17T04:46:00.261Z,7.13
2023-05-17T04:48:27.851Z,8.50
2023-05-17T04:50:54.780Z,5.53
2023-05-17T04:53:21.910Z,7.65
2023-05-17T04:55:48.924Z,9.32
2023-05-17T04:58:15.683Z,5.25
2023-05-17T05:00:42.519Z,7.68
2023-05-17T05:03:09.330Z,5.55
2023-05-17T05:05:36.113Z,6.95
2023-05-17T05:08:05.916Z,5.32
2023-05-17T05:10:32.630Z,5.53
2023-05-17T05:12:59.608Z,10.55
2023-05-17T05:15:26.515Z,8.50
2023-05-17T05:17:53.646Z,8.30
2023-05-17T05:20:20.518Z,7.45
2023-05-17T05:22:47.892Z,6.25
2023-05-17T05:25:14.878Z,6.03
2023-05-17T05:27:41.611Z,5.93
2023-05-17T05:30:09.156Z,7.05
2023-05-17T05:32:38.152Z,7.28
2023-05-17T05:35:06.005Z,5.97
2023-05-17T05:37:32.867Z,9.48
2023-05-17T05:40:00.691Z,7.97
2023-05-17T05:42:28.160Z,10.25
2023-05-17T05:44:54.823Z,5.80
2023-05-17T05:47:21.783Z,7.90
2023-05-17T05:49:48.492Z,7.15
2023-05-17T05:52:15.173Z,10.05
2023-05-17T05:54:42.112Z,6.38
2023-05-17T05:57:08.830Z,5.90
2023-05-17T05:59:35.630Z,9.95
2023-05-17T06:02:02.354Z,6.57
2023-05-17T06:04:40.707Z,9.68
2023-05-17T06:07:11.416Z,8.40
2023-05-17T06:09:38.225Z,9.55
2023-05-17T06:12:06.080Z,12.05
2023-05-17T06:14:33.786Z,17.02
2023-05-17T06:17:00.843Z,9.60
2023-05-17T06:19:27.603Z,11.18
2023-05-17T06:21:54.558Z,9.00
2023-05-17T06:24:21.295Z,11.93
2023-05-17T06:26:49.056Z,10.68
2023-05-17T06:29:15.904Z,12.52
2023-05-17T06:31:42.629Z,10.00
2023-05-17T06:34:09.407Z,11.60
2023-05-17T06:36:37.621Z,9.02
2023-05-17T06:39:05.444Z,9.63
2023-05-17T06:41:32.662Z,11.40
2023-05-17T06:43:59.443Z,12.63
2023-05-17T06:46:26.413Z,12.10
2023-05-17T06:48:53.365Z,10.65
2023-05-17T06:51:20.195Z,10.85
2023-05-17T06:53:47.191Z,13.10
2023-05-17T06:56:14.847Z,10.98
2023-05-17T06:58:41.761Z,12.82
2023-05-17T07:01:08.447Z,11.90
2023-05-17T07:03:36.896Z,7.95
2023-05-17T07:06:03.919Z,11.20
2023-05-17T07:08:30.740Z,7.38
2023-05-17T07:10:58.198Z,11.55
2023-05-17T07:13:24.938Z,9.40
2023-05-17T07:15:51.668Z,9.98
2023-05-17T07:18:18.473Z,9.48
2023-05-17T07:20:45.490Z,11.32
2023-05-17T07:23:12.381Z,11.45
2023-05-17T07:25:41.484Z,9.73
2023-05-17T07:28:08.647Z,11.10
2023-05-17T07:30:35.426Z,8.82
2023-05-17T07:33:02.204Z,9.45
2023-05-17T07:35:29.205Z,9.23
2023-05-17T07:37:56.133Z,11.13
2023-05-17T07:40:23.035Z,11.35
2023-05-17T07:42:50.377Z,9.32
2023-05-17T07:45:17.191Z,12.55
2023-05-17T07:47:44.087Z,8.57
2023-05-17T07:50:11.450Z,11.63
2023-05-17T07:52:38.381Z,6.03
2023-05-17T07:55:12.224Z,6.63
2023-05-17T07:57:39.259Z,7.13
2023-05-17T08:00:09.136Z,9.27
2023-05-17T08:02:35.947Z,8.77
2023-05-17T08:05:03.138Z,9.50
2023-05-17T08:07:29.956Z,8.35
2023-05-17T08:09:56.644Z,10.30
2023-05-17T08:12:23.348Z,8.20
2023-05-17T08:14:50.393Z,7.72
2023-05-17T08:17:17.206Z,10.88
2023-05-17T08:19:44.238Z,7.97
2023-05-17T08:22:11.686Z,12.40
2023-05-17T08:24:38.453Z,9.55
2023-05-17T08:27:05.958Z,6.57
2023-05-17T08:29:32.739Z,6.05
2023-05-17T08:31:59.798Z,8.50
2023-05-17T08:34:26.718Z,7.60
2023-05-17T08:36:53.984Z,10.63
2023-05-17T08:39:21.414Z,6.75
2023-05-17T08:41:48.798Z,7.13
2023-05-17T08:44:19.400Z,6.35
2023-05-17T08:46:53.736Z,9.38
2023-05-17T08:49:23.751Z,9.10
2023-05-17T08:51:52.133Z,9.40
2023-05-17T08:54:18.832Z,4.82
2023-05-17T08:56:45.693Z,7.38
2023-05-17T08:59:12.582Z,6.22
2023-05-17T09:01:42.242Z,7.35
2023-05-17T09:04:10.383Z,5.85
2023-05-17T09:06:37.463Z,8.15
2023-05-17T09:09:05.105Z,7.72
2023-05-17T09:11:35.247Z,8.38
2023-05-17T09:14:06.673Z,7.97
2023-05-17T09:16:37.820Z,9.98
2023-05-17T09:19:06.270Z,5.25
2023-05-17T09:21:34.450Z,6.50
2023-05-17T09:24:07.395Z,7.85
2023-05-17T09:26:46.217Z,8.50
2023-05-17T09:29:18.733Z,7.03
2023-05-17T09:31:45.423Z,5.97
2023-05-17T09:34:12.341Z,7.70
2023-05-17T09:36:43.069Z,6.85
2023-05-17T09:39:13.839Z,6.10
2023-05-17T09:41:42.925Z,8.50
2023-05-17T09:44:10.845Z,8.60
2023-05-17T09:46:39.240Z,7.63
2023-05-17T09:49:09.519Z,6.70
2023-05-17T09:51:44.156Z,5.25
2023-05-17T09:54:11.635Z,5.05
2023-05-17T09:56:38.896Z,9.75
2023-05-17T09:59:13.204Z,8.02
2023-05-17T10:01:48.435Z,8.23
2023-05-17T10:04:21.442Z,7.88
2023-05-17T10:06:52.377Z,8.10
2023-05-17T10:09:22.917Z,8.32
2023-05-17T10:11:53.729Z,6.50
2023-05-17T10:14:35.231Z,8.15
2023-05-17T10:17:03.620Z,5.63
2023-05-17T10:19:30.988Z,6.10
2023-05-17T10:22:08.347Z,5.28
2023-05-17T10:24:46.889Z,7.57
2023-05-17T10:27:13.823Z,6.78
2023-05-17T10:29:41.344Z,6.35
2023-05-17T10:32:09.042Z,7.95
2023-05-17T10:34:37.599Z,6.18
2023-05-17T10:37:05.631Z,8.93
2023-05-17T10:39:34.984Z,8.70
2023-05-17T10:42:14.393Z,6.10
2023-05-17T10:44:42.282Z,5.25
2023-05-17T10:47:10.468Z,9.32
2023-05-17T10:49:39.726Z,7.30
2023-05-17T10:52:32.799Z,5.78
2023-05-17T10:54:59.811Z,8.27
2023-05-17T10:57:49.090Z,10.40
2023-05-17T11:00:21.387Z,5.65
2023-05-17T11:02:49.300Z,4.75
2023-05-17T11:05:27.766Z,4.95
2023-05-17T11:08:14.424Z,6.93
2023-05-17T11:11:14.935Z,6.22
2023-05-17T11:14:02.459Z,7.43
2023-05-17T11:16:36.015Z,9.10
2023-05-17T11:19:11.017Z,9.30
2023-05-17T11:21:48.144Z,5.85
2023-05-17T11:24:21.499Z,6.85
2023-05-17T11:26:50.633Z,8.52
2023-05-17T11:29:18.860Z,6.75
2023-05-17T11:31:46.602Z,7.07
2023-05-17T11:34:13.520Z,4.15
2023-05-17T11:36:54.316Z,4.75
2023-05-17T11:39:23.005Z,7.20
2023-05-17T11:41:51.601Z,2.88
2023-05-17T11:44:27.872Z,5.22
2023-05-17T11:47:06.125Z,5.03
2023-05-17T11:49:36.375Z,4.25
2023-05-17T11:52:07.723Z,4.78
2023-05-17T11:54:35.280Z,6.40
2023-05-17T11:57:05.495Z,10.02
2023-05-17T11:59:40.388Z,9.02
2023-05-17T12:02:07.292Z,5.70
2023-05-17T12:04:40.154Z,4.55
2023-05-17T12:07:11.000Z,7.78
2023-05-17T12:09:39.080Z,9.60
2023-05-17T12:12:06.208Z,7.97
2023-05-17T12:14:33.290Z,3.63
2023-05-17T12:17:02.842Z,5.60
2023-05-17T12:19:30.663Z,4.72
2023-05-17T12:22:13.999Z,7.35
2023-05-17T12:24:42.114Z,5.78
2023-05-17T12:27:09.845Z,5.72
2023-05-17T12:29:36.635Z,5.55
2023-05-17T12:32:03.896Z,12.70
2023-05-17T12:34:30.964Z,12.70
2023-05-17T12:36:58.188Z,2.97
2023-05-17T12:39:25.180Z,7.32
2023-05-17T12:41:52.786Z,5.68
2023-05-17T12:44:22.829Z,11.25
2023-05-17T12:46:56.523Z,9.65
2023-05-17T12:49:24.026Z,6.30
2023-05-17T12:51:51.067Z,6.53
2023-05-17T12:54:36.089Z,4.03
2023-05-17T12:57:14.377Z,5.35
2023-05-17T12:59:52.715Z,6.82
2023-05-17T13:02:20.828Z,10.05
2023-05-17T13:04:48.048Z,4.63
2023-05-17T13:07:25.186Z,30.95
2023-05-17T13:09:52.824Z,6.65
2023-05-17T13:12:22.731Z,4.72
2023-05-17T13:14:55.121Z,10.25
2023-05-17T13:17:27.570Z,4.53
2023-05-17T13:19:58.393Z,6.78
2023-05-17T13:22:25.924Z,6.93
2023-05-17T13:24:53.014Z,5.72
2023-05-17T13:27:20.158Z,6.47
2023-05-17T13:29:46.858Z,7.75
2023-05-17T13:32:14.166Z,5.50
2023-05-17T13:34:41.659Z,7.13
2023-05-17T13:37:12.025Z,7.10
2023-05-17T13:39:40.378Z,5.00
2023-05-17T13:42:07.429Z,6.95
2023-05-17T13:44:34.328Z,5.60
2023-05-17T13:47:01.188Z,5.75
2023-05-17T13:49:29.107Z,5.63
2023-05-17T13:51:57.125Z,9.98
2023-05-17T13:54:24.268Z,5.70
2023-05-17T13:56:51.087Z,5.85
2023-05-17T13:59:17.832Z,5.40
2023-05-17T14:01:45.374Z,3.35
2023-05-17T14:04:12.556Z,5.90
2023-05-17T14:06:39.896Z,6.18
2023-05-17T14:09:06.654Z,6.85
2023-05-17T14:11:34.247Z,4.10
2023-05-17T14:14:01.507Z,7.65
2023-05-17T14:16:28.219Z,5.88
2023-05-17T14:18:55.743Z,8.57
2023-05-17T14:21:23.057Z,8.88
2023-05-17T14:23:49.797Z,6.93
2023-05-17T14:26:16.647Z,5.80
2023-05-17T14:28:43.402Z,4.85
2023-05-17T14:31:11.004Z,5.63
2023-05-17T14:33:37.924Z,5.50
2023-05-17T14:36:05.390Z,4.97
2023-05-17T14:38:32.437Z,5.80
2023-05-17T14:41:01.295Z,10.65
2023-05-17T14:43:29.182Z,5.18
2023-05-17T14:45:56.252Z,6.60
2023-05-17T14:48:23.594Z,6.38
2023-05-17T14:50:50.629Z,3.83
2023-05-17T14:53:17.832Z,4.95
2023-05-17T14:55:48.300Z,6.20
2023-05-17T14:58:17.947Z,7.28
2023-05-17T15:00:48.536Z,3.67
2023-05-17T15:03:21.955Z,5.70
2023-05-17T15:05:56.033Z,3.05
2023-05-17T15:08:23.261Z,4.70
2023-05-17T15:10:54.549Z,3.45
2023-05-17T15:13:22.124Z,5.95
2023-05-17T15:15:49.948Z,7.40
2023-05-17T15:18:17.160Z,8.38
2023-05-17T15:20:44.197Z,6.18
2023-05-17T15:23:12.133Z,3.72
2023-05-17T15:25:39.241Z,6.10
2023-05-17T15:28:07.063Z,8.45
2023-05-17T15:30:34.121Z,8.70
2023-05-17T15:33:01.466Z,10.07
2023-05-17T15:35:29.596Z,6.80
2023-05-17T15:38:02.385Z,6.28
2023-05-17T15:40:29.189Z,9.43
2023-05-17T15:42:56.391Z,5.97
2023-05-17T15:45:23.710Z,5.13
2023-05-17T15:47:51.122Z,7.53
2023-05-17T15:50:18.042Z,10.20
2023-05-17T15:52:44.912Z,8.32
2023-05-17T15:55:14.448Z,7.10
2023-05-17T15:57:42.475Z,5.57
2023-05-17T16:00:10.366Z,7.20
2023-05-17T16:02:37.282Z,7.78
2023-05-17T16:05:04.589Z,9.23
2023-05-17T16:07:31.637Z,5.93
2023-05-17T16:09:58.437Z,8.25
2023-05-17T16:12:25.627Z,5.82
2023-05-17T16:14:52.659Z,4.13
2023-05-17T16:17:19.549Z,6.10
2023-05-17T16:19:46.721Z,5.20
2023-05-17T16:22:16.734Z,6.30
2023-05-17T16:24:44.081Z,6.75
2023-05-17T16:27:11.942Z,6.78
2023-05-17T16:29:40.645Z,7.88
2023-05-17T16:32:10.757Z,4.90
2023-05-17T16:34:40.496Z,6.47
2023-05-17T16:37:11.584Z,8.85
2023-05-17T16:39:38.570Z,5.72
2023-05-17T16:42:08.712Z,5.30
2023-05-17T16:44:35.400Z,10.07
2023-05-17T16:47:02.555Z,12.18
2023-05-17T16:49:30.686Z,6.53
2023-05-17T16:51:57.507Z,9.80
2023-05-17T16:54:26.200Z,4.32
2023-05-17T16:56:53.080Z,9.23
2023-05-17T16:59:20.161Z,7.10
2023-05-17T17:01:46.971Z,8.00
2023-05-17T17:04:13.782Z,10.40
2023-05-17T17:06:40.783Z,9.20
2023-05-17T17:09:08.995Z,3.80
2023-05-17T17:11:36.042Z,8.02
2023-05-17T17:14:02.887Z,7.32
2023-05-17T17:16:30.136Z,8.75
2023-05-17T17:18:57.257Z,9.02
2023-05-17T17:21:24.167Z,5.93
2023-05-17T17:23:51.584Z,7.05
2023-05-17T17:26:18.425Z,9.52
2023-05-17T17:28:45.583Z,7.85
2023-05-17T17:31:12.342Z,9.38
2023-05-17T17:33:39.149Z,7.53
2023-05-17T17:36:06.780Z,7.53
2023-05-17T17:38:33.706Z,10.18
2023-05-17T17:41:00.412Z,3.97
2023-05-17T17:43:27.100Z,4.65
2023-05-17T17:45:53.780Z,9.73
2023-05-17T17:48:20.690Z,6.47
2023-05-17T17:50:47.497Z,7.30
2023-05-17T17:53:14.270Z,8.40
2023-05-17T17:55:41.166Z,10.45
2023-05-17T17:58:07.826Z,6.38
2023-05-17T18:00:34.613Z,5.80
2023-05-17T18:03:01.446Z,8.13
2023-05-17T18:05:28.495Z,6.10
2023-05-17T18:07:56.341Z,9.23
2023-05-17T18:10:23.159Z,8.25
2023-05-17T18:12:51.730Z,5.88
2023-05-17T18:15:18.743Z,6.55
2023-05-17T18:17:45.961Z,6.93
2023-05-17T18:20:12.760Z,4.22
2023-05-17T18:22:39.718Z,7.53
2023-05-17T18:25:06.971Z,8.18
2023-05-17T18:27:33.932Z,9.40
2023-05-17T18:30:01.205Z,7.82
2023-05-17T18:32:28.212Z,5.43
2023-05-17T18:34:55.940Z,5.68
2023-05-17T18:37:22.928Z,5.60
2023-05-17T18:39:50.439Z,5.93
2023-05-17T18:42:17.605Z,8.13
2023-05-17T18:44:44.683Z,5.45
2023-05-17T18:47:12.318Z,9.45
2023-05-17T18:49:45.621Z,6.53
2023-05-17T18:52:12.869Z,6.43
2023-05-17T18:54:39.708Z,9.10
2023-05-17T18:57:06.668Z,8.27
2023-05-17T18:59:36.626Z,7.57
2023-05-17T19:02:07.781Z,8.48
2023-05-17T19:04:34.596Z,7.07
2023-05-17T19:07:01.447Z,7.65
2023-05-17T19:09:28.436Z,5.70
2023-05-17T19:11:55.638Z,6.80
2023-05-17T19:14:22.552Z,5.35
2023-05-17T19:16:51.418Z,7.63
2023-05-17T19:19:18.189Z,8.13
2023-05-17T19:21:45.311Z,8.77
2023-05-17T19:24:12.115Z,5.63
2023-05-17T19:26:38.910Z,10.70
2023-05-17T19:29:05.642Z,5.80
2023-05-17T19:31:33.527Z,4.15
2023-05-17T19:34:01.918Z,8.57
2023-05-17T19:36:28.628Z,6.63
2023-05-17T19:38:55.430Z,9.23
2023-05-17T19:41:22.195Z,8.27
2023-05-17T19:43:49.069Z,7.78
2023-05-17T19:46:16.066Z,4.95
2023-05-17T19:48:42.862Z,10.38
2023-05-17T19:51:09.579Z,8.80
2023-05-17T19:53:51.013Z,5.18
2023-05-17T19:56:19.770Z,8.45
2023-05-17T19:58:46.503Z,8.65
2023-05-17T20:01:13.338Z,6.00
2023-05-17T20:03:40.928Z,9.00
2023-05-17T20:06:11.305Z,5.47
2023-05-17T20:08:38.255Z,7.97
2023-05-17T20:11:06.017Z,7.25
2023-05-17T20:13:34.421Z,7.45
2023-05-17T20:16:01.449Z,8.40
2023-05-17T20:18:30.485Z,8.35
2023-05-17T20:20:57.627Z,6.63
2023-05-17T20:23:28.871Z,6.85
2023-05-17T20:25:55.683Z,4.78
2023-05-17T20:28:22.399Z,5.15
2023-05-17T20:30:49.165Z,8.23
2023-05-17T20:33:16.119Z,5.00
2023-05-17T20:35:42.882Z,12.90
2023-05-17T20:38:09.586Z,9.63
2023-05-17T20:40:36.393Z,8.23
2023-05-17T20:43:03.777Z,10.70
2023-05-17T20:45:30.717Z,6.57
2023-05-17T20:47:57.514Z,7.57
2023-05-17T20:50:24.445Z,7.93
2023-05-17T20:52:51.142Z,11.07
2023-05-17T20:55:17.870Z,5.95
2023-05-17T20:57:44.548Z,9.15
2023-05-17T21:00:12.386Z,4.75
2023-05-17T21:02:39.358Z,10.02
2023-05-17T21:05:06.273Z,6.80
2023-05-17T21:07:33.027Z,9.95
2023-05-17T21:09:59.787Z,6.28
2023-05-17T21:12:26.452Z,7.15
2023-05-17T21:15:07.949Z,5.97
2023-05-17T21:17:40.372Z,10.85
2023-05-17T21:20:07.813Z,6.05
2023-05-17T21:22:34.768Z,11.98
2023-05-17T21:25:01.451Z,9.93
2023-05-17T21:27:29.090Z,14.98
2023-05-17T21:29:56.147Z,9.57
2023-05-17T21:32:22.996Z,24.70
2023-05-17T21:34:51.021Z,49.50
2023-05-17T21:37:19.223Z,42.47
2023-05-17T21:39:46.239Z,41.45
2023-05-17T21:42:12.970Z,12.43
2023-05-17T21:44:39.621Z,30.38
2023-05-17T21:47:06.677Z,19.80
2023-05-17T21:49:33.522Z,21.83
2023-05-17T21:52:00.259Z,22.23
2023-05-17T21:54:27.071Z,15.05
2023-05-17T21:56:53.764Z,14.40
2023-05-17T21:59:20.474Z,11.50
2023-05-17T22:01:47.418Z,10.50
2023-05-17T22:04:14.381Z,8.25
2023-05-17T22:06:41.216Z,8.73
2023-05-17T22:09:09.700Z,10.50
2023-05-17T22:11:38.594Z,13.60
2023-05-17T22:14:08.281Z,8.38
2023-05-17T22:16:36.303Z,5.80
2023-05-17T22:19:04.105Z,10.85
2023-05-17T22:21:32.187Z,8.38
2023-05-17T22:23:59.568Z,7.55
2023-05-17T22:26:27.999Z,6.82
2023-05-17T22:28:55.964Z,6.78
2023-05-17T22:31:23.068Z,7.90
2023-05-17T22:33:49.865Z,11.18
2023-05-17T22:36:17.465Z,8.27
2023-05-17T22:38:44.249Z,11.07
2023-05-17T22:41:11.750Z,7.82
2023-05-17T22:43:39.228Z,6.07
2023-05-17T22:46:06.555Z,7.90
2023-05-17T22:48:33.462Z,9.43
2023-05-17T22:51:02.554Z,8.40
2023-05-17T22:53:30.194Z,8.07
2023-05-17T22:55:57.029Z,8.43
2023-05-17T22:58:24.055Z,9.52
2023-05-17T23:00:51.387Z,6.90
2023-05-17T23:03:21.558Z,7.28
2023-05-17T23:05:48.482Z,6.28
2023-05-17T23:08:16.118Z,7.78
2023-05-17T23:10:46.020Z,6.18
2023-05-17T23:13:13.472Z,5.97
2023-05-17T23:15:41.018Z,7.10
2023-05-17T23:18:07.826Z,5.35
2023-05-17T23:20:35.249Z,3.85
2023-05-17T23:23:02.411Z,6.90
2023-05-17T23:25:29.788Z,7.80
2023-05-17T23:27:58.388Z,7.97
2023-05-17T23:30:26.518Z,5.03
2023-05-17T23:32:53.377Z,5.22
2023-05-17T23:35:20.191Z,6.32
2023-05-17T23:37:47.599Z,7.40
2023-05-17T23:40:15.048Z,8.02
2023-05-17T23:42:41.978Z,7.00
2023-05-17T23:45:10.179Z,6.95
2023-05-17T23:47:41.207Z,6.00
2023-05-17T23:50:12.280Z,5.90
2023-05-17T23:52:39.471Z,4.70
2023-05-17T23:55:09.536Z,6.75
2023-05-17T23:57:36.515Z,3.80
